createdAt,value
2022-12-27T00:00:40.462Z,95.48
2022-12-27T00:03:08.178Z,95.43
2022-12-27T00:05:35.857Z,95.88
2022-12-27T00:08:03.659Z,95.75
2022-12-27T00:10:31.191Z,95.77
2022-12-27T00:12:59.053Z,95.74
2022-12-27T00:15:26.681Z,95.55
2022-12-27T00:17:54.284Z,95.29
2022-12-27T00:20:21.909Z,95.56
2022-12-27T00:22:49.493Z,95.39
2022-12-27T00:25:17.164Z,95.80
2022-12-27T00:27:44.762Z,95.28
2022-12-27T00:30:12.863Z,95.64
2022-12-27T00:32:40.514Z,96.13
2022-12-27T00:35:08.490Z,96.24
2022-12-27T00:37:36.034Z,96.40
2022-12-27T00:40:04.087Z,96.75
2022-12-27T00:42:31.730Z,96.91
2022-12-27T00:44:59.265Z,96.76
2022-12-27T00:47:26.874Z,97.46
2022-12-27T00:49:54.448Z,96.96
2022-12-27T00:52:22.019Z,96.68
2022-12-27T00:54:49.507Z,96.76
2022-12-27T00:57:17.127Z,96.83
2022-12-27T00:59:44.681Z,96.49
2022-12-27T01:02:12.297Z,96.53
2022-12-27T01:04:40.111Z,96.59
2022-12-27T01:07:07.678Z,96.08
2022-12-27T01:09:35.322Z,95.82
2022-12-27T01:12:03.056Z,95.22
2022-12-27T01:14:30.632Z,95.71
2022-12-27T01:16:58.337Z,95.37
2022-12-27T01:19:26.182Z,95.72
2022-12-27T01:21:53.803Z,95.13
2022-12-27T01:24:22.045Z,95.05
2022-12-27T01:26:49.684Z,95.15
2022-12-27T01:29:17.255Z,95.34
2022-12-27T01:31:45.061Z,95.76
2022-12-27T01:34:12.688Z,95.29
2022-12-27T01:36:40.360Z,95.33
2022-12-27T01:39:08.555Z,95.55
2022-12-27T01:41:57.176Z,95.48
2022-12-27T01:44:40.208Z,95.66
2022-12-27T01:47:20.833Z,95.53
2022-12-27T01:50:06.139Z,95.61
2022-12-27T01:52:56.747Z,95.60
2022-12-27T01:55:40.219Z,95.22
2022-12-27T01:58:19.349Z,95.41
2022-12-27T02:00:49.188Z,95.33
2022-12-27T02:03:43.725Z,95.22
2022-12-27T02:06:13.184Z,95.24
2022-12-27T02:09:02.031Z,95.67
2022-12-27T02:11:50.073Z,95.44
2022-12-27T02:14:46.562Z,95.42
2022-12-27T02:17:24.713Z,95.39
2022-12-27T02:20:04.480Z,95.48
2022-12-27T02:22:57.795Z,95.61
2022-12-27T02:25:35.089Z,95.79
2022-12-27T02:28:30.544Z,95.53
2022-12-27T02:31:22.674Z,95.15
2022-12-27T02:33:53.296Z,95.08
2022-12-27T02:36:27.271Z,95.44
2022-12-27T02:38:59.519Z,95.87
2022-12-27T02:41:48.455Z,95.63
2022-12-27T02:44:38.151Z,96.33
2022-12-27T02:47:39.374Z,95.94
2022-12-27T02:50:27.546Z,96.53
2022-12-27T02:53:18.193Z,96.31
2022-12-27T02:56:31.859Z,96.65
2022-12-27T02:59:07.819Z,96.67
2022-12-27T03:02:19.528Z,96.76
2022-12-27T03:05:15.496Z,96.53
2022-12-27T03:08:04.105Z,96.85
2022-12-27T03:11:02.699Z,96.26
2022-12-27T03:13:53.719Z,96.87
2022-12-27T03:16:34.197Z,96.86
2022-12-27T03:19:13.060Z,96.56
2022-12-27T03:22:04.455Z,96.57
2022-12-27T03:24:54.322Z,97.06
2022-12-27T03:27:30.477Z,96.61
2022-12-27T03:30:19.024Z,97.07
2022-12-27T03:33:10.294Z,96.43
2022-12-27T03:36:09.937Z,96.62
2022-12-27T03:38:47.804Z,96.49
2022-12-27T03:41:41.502Z,96.06
2022-12-27T03:44:24.597Z,96.72
2022-12-27T03:47:12.929Z,96.60
2022-12-27T03:49:53.913Z,96.17
2022-12-27T03:52:27.940Z,96.10
2022-12-27T03:54:56.192Z,96.27
2022-12-27T03:57:26.444Z,96.40
2022-12-27T03:59:55.133Z,95.94
2022-12-27T04:02:23.079Z,96.25
2022-12-27T04:04:50.753Z,95.98
2022-12-27T04:07:18.783Z,96.28
2022-12-27T04:10:04.761Z,95.99
2022-12-27T04:12:50.698Z,96.32
2022-12-27T04:15:36.904Z,96.57
2022-12-27T04:18:23.384Z,96.80
2022-12-27T04:21:09.518Z,96.93
2022-12-27T04:23:55.705Z,96.20
2022-12-27T04:26:42.210Z,96.49
2022-12-27T04:29:28.239Z,96.38
2022-12-27T04:32:14.313Z,96.69
2022-12-27T04:34:44.886Z,97.12
2022-12-27T04:37:18.859Z,97.28
2022-12-27T04:40:10.234Z,97.22
2022-12-27T04:42:56.576Z,97.44
2022-12-27T04:45:42.590Z,97.17
2022-12-27T04:48:33.722Z,97.63
2022-12-27T04:51:20.368Z,97.66
2022-12-27T04:54:06.357Z,97.42
2022-12-27T04:56:34.034Z,97.70
2022-12-27T04:59:20.079Z,97.37
2022-12-27T05:02:05.924Z,97.13
2022-12-27T05:04:36.838Z,97.54
2022-12-27T05:07:25.832Z,97.41
2022-12-27T05:10:11.877Z,97.23
2022-12-27T05:12:57.989Z,96.99
2022-12-27T05:15:25.579Z,97.60
2022-12-27T05:17:53.252Z,97.41
2022-12-27T05:20:20.814Z,97.52
2022-12-27T05:23:06.893Z,97.32
2022-12-27T05:25:38.530Z,97.18
2022-12-27T05:28:11.608Z,97.19
2022-12-27T05:30:43.023Z,97.01
2022-12-27T05:33:11.195Z,97.38
2022-12-27T05:35:38.863Z,97.27
2022-12-27T05:38:06.976Z,96.90
2022-12-27T05:40:34.589Z,97.44
2022-12-27T05:43:03.495Z,97.16
2022-12-27T05:45:31.315Z,96.76
2022-12-27T05:47:59.541Z,96.88
2022-12-27T05:50:27.988Z,96.88
2022-12-27T05:53:11.180Z,96.95
2022-12-27T05:55:38.822Z,97.37
2022-12-27T05:58:07.391Z,96.81
2022-12-27T06:00:35.243Z,96.70
2022-12-27T06:03:03.667Z,96.84
2022-12-27T06:05:31.389Z,97.27
2022-12-27T06:07:59.044Z,96.78
2022-12-27T06:10:26.551Z,97.35
2022-12-27T06:12:54.125Z,97.04
2022-12-27T06:15:21.712Z,97.34
2022-12-27T06:17:49.242Z,97.16
2022-12-27T06:20:17.513Z,97.35
2022-12-27T06:22:45.905Z,97.85
2022-12-27T06:25:14.675Z,97.75
2022-12-27T06:27:42.336Z,97.83
2022-12-27T06:30:12.667Z,97.47
2022-12-27T06:32:40.261Z,97.69
2022-12-27T06:35:08.254Z,97.88
2022-12-27T06:37:35.797Z,98.07
2022-12-27T06:40:03.668Z,98.20
2022-12-27T06:42:31.387Z,97.76
2022-12-27T06:44:59.073Z,97.77
2022-12-27T06:47:26.697Z,98.25
2022-12-27T06:49:55.841Z,98.07
2022-12-27T06:52:23.432Z,98.31
2022-12-27T06:54:50.923Z,98.41
2022-12-27T06:57:18.483Z,97.72
2022-12-27T06:59:50.901Z,98.49
2022-12-27T07:02:21.648Z,98.05
2022-12-27T07:04:49.255Z,97.94
2022-12-27T07:07:16.826Z,98.18
2022-12-27T07:09:44.623Z,97.84
2022-12-27T07:12:12.268Z,98.33
2022-12-27T07:14:39.981Z,98.68
2022-12-27T07:17:07.529Z,97.94
2022-12-27T07:19:35.041Z,97.77
2022-12-27T07:22:02.849Z,98.21
2022-12-27T07:24:33.312Z,97.95
2022-12-27T07:27:02.307Z,97.95
2022-12-27T07:29:30.003Z,98.33
2022-12-27T07:31:58.769Z,98.14
2022-12-27T07:34:27.591Z,98.06
2022-12-27T07:36:55.219Z,98.33
2022-12-27T07:39:22.937Z,98.30
2022-12-27T07:41:51.667Z,98.17
2022-12-27T07:44:19.735Z,98.35
2022-12-27T07:46:47.311Z,98.11
2022-12-27T07:49:17.812Z,98.07
2022-12-27T07:51:45.782Z,98.24
2022-12-27T07:54:13.357Z,98.25
2022-12-27T07:56:40.966Z,98.90
2022-12-27T07:59:12.743Z,98.84
2022-12-27T08:01:59.348Z,98.44
2022-12-27T08:04:26.961Z,98.31
2022-12-27T08:07:15.380Z,98.54
2022-12-27T08:09:45.673Z,98.20
2022-12-27T08:12:14.158Z,98.71
2022-12-27T08:14:42.394Z,98.34
2022-12-27T08:17:15.747Z,98.62
2022-12-27T08:19:43.441Z,98.65
2022-12-27T08:22:11.395Z,98.44
2022-12-27T08:24:40.999Z,98.74
2022-12-27T08:27:08.982Z,98.76
2022-12-27T08:29:37.883Z,98.62
2022-12-27T08:32:05.873Z,98.78
2022-12-27T08:34:34.020Z,98.91
2022-12-27T08:37:01.601Z,98.52
2022-12-27T08:39:30.154Z,98.79
2022-12-27T08:41:57.742Z,98.45
2022-12-27T08:44:25.687Z,98.91
2022-12-27T08:46:53.510Z,98.67
2022-12-27T08:49:21.100Z,98.59
2022-12-27T08:51:48.615Z,98.82
2022-12-27T08:54:16.211Z,98.57
2022-12-27T08:56:43.924Z,98.65
2022-12-27T08:59:11.455Z,98.76
2022-12-27T09:01:39.177Z,98.89
2022-12-27T09:04:06.862Z,98.78
2022-12-27T09:06:34.515Z,98.82
2022-12-27T09:09:02.104Z,98.82
2022-12-27T09:11:33.397Z,98.73
2022-12-27T09:14:03.335Z,99.15
2022-12-27T09:16:34.199Z,98.81
2022-12-27T09:19:04.072Z,99.00
2022-12-27T09:21:34.036Z,98.66
2022-12-27T09:24:01.726Z,98.69
2022-12-27T09:26:30.615Z,98.31
2022-12-27T09:28:59.380Z,98.69
2022-12-27T09:31:28.392Z,98.52
2022-12-27T09:33:56.990Z,98.87
2022-12-27T09:36:28.281Z,98.43
2022-12-27T09:38:58.131Z,98.59
2022-12-27T09:45:19.727Z,98.69
2022-12-27T09:47:58.189Z,98.62
2022-12-27T09:50:42.624Z,98.51
2022-12-27T09:53:22.443Z,98.64
2022-12-27T09:55:53.123Z,98.79
2022-12-27T09:58:52.253Z,98.58
2022-12-27T10:01:20.098Z,98.39
2022-12-27T10:03:48.341Z,98.81
2022-12-27T10:06:32.298Z,98.99
2022-12-27T10:09:11.671Z,98.74
2022-12-27T10:12:13.552Z,98.78
2022-12-27T10:14:59.355Z,98.35
2022-12-27T10:18:08.549Z,98.75
2022-12-27T10:20:51.789Z,98.42
2022-12-27T10:23:25.703Z,98.24
2022-12-27T10:25:58.992Z,98.11
2022-12-27T10:28:39.053Z,98.56
2022-12-27T10:31:14.301Z,98.62
2022-12-27T10:33:42.615Z,98.79
2022-12-27T10:36:23.857Z,98.83
2022-12-27T10:38:51.800Z,98.35
2022-12-27T10:41:22.275Z,98.81
2022-12-27T10:43:52.558Z,98.61
2022-12-27T10:46:32.488Z,99.04
2022-12-27T10:49:21.518Z,98.89
2022-12-27T10:51:51.974Z,99.12
2022-12-27T10:54:24.136Z,99.09
2022-12-27T10:56:52.240Z,98.91
2022-12-27T10:59:27.737Z,99.21
2022-12-27T11:02:04.280Z,99.22
2022-12-27T11:04:32.774Z,99.12
2022-12-27T11:07:01.839Z,99.29
2022-12-27T11:09:37.536Z,99.46
2022-12-27T11:12:17.384Z,99.48
2022-12-27T11:15:23.686Z,99.55
2022-12-27T11:17:55.622Z,99.73
2022-12-27T11:20:44.817Z,99.41
2022-12-27T11:23:16.908Z,99.50
2022-12-27T11:25:55.111Z,99.66
2022-12-27T11:28:38.508Z,99.66
2022-12-27T11:31:13.026Z,99.58
2022-12-27T11:33:48.625Z,99.67
2022-12-27T11:36:25.482Z,99.94
2022-12-27T11:38:53.277Z,99.80
2022-12-27T11:41:34.662Z,99.60
2022-12-27T11:44:26.853Z,99.84
2022-12-27T11:47:33.178Z,99.96
2022-12-27T11:50:06.442Z,99.70
2022-12-27T11:52:53.967Z,100.00
2022-12-27T11:55:56.033Z,100.00
2022-12-27T11:59:06.639Z,100.00
2022-12-27T12:02:00.239Z,99.97
2022-12-27T12:04:36.927Z,99.74
2022-12-27T12:07:13.364Z,100.00
2022-12-27T12:10:11.206Z,99.87
2022-12-27T12:13:10.799Z,100.00
2022-12-27T12:15:56.729Z,99.97
2022-12-27T12:19:32.038Z,100.00
2022-12-27T12:22:30.368Z,100.00
2022-12-27T12:25:30.172Z,100.00
2022-12-27T12:28:57.544Z,100.00
2022-12-27T12:31:35.629Z,100.00
2022-12-27T12:34:16.865Z,100.00
2022-12-27T12:37:21.523Z,100.00
2022-12-27T12:40:12.039Z,100.00
2022-12-27T12:42:54.559Z,100.00
2022-12-27T12:45:25.664Z,100.00
2022-12-27T12:48:19.698Z,100.00
2022-12-27T12:50:56.194Z,100.00
2022-12-27T12:53:42.216Z,100.00
2022-12-27T12:56:41.928Z,100.00
2022-12-27T12:59:39.124Z,100.00
2022-12-27T13:02:22.296Z,100.00
2022-12-27T13:05:28.578Z,100.00
2022-12-27T13:08:17.912Z,100.00
2022-12-27T13:11:09.343Z,100.00
2022-12-27T13:14:14.267Z,100.00
2022-12-27T13:17:15.738Z,100.00
2022-12-27T13:20:18.009Z,100.00
2022-12-27T13:23:17.091Z,100.00
2022-12-27T13:25:53.791Z,100.00
2022-12-27T13:28:42.724Z,100.00
2022-12-27T13:31:48.911Z,100.00
2022-12-27T13:34:25.142Z,100.00
2022-12-27T13:37:22.568Z,100.00
2022-12-27T13:40:08.774Z,100.00
2022-12-27T13:43:10.201Z,100.00
2022-12-27T13:45:56.163Z,100.00
2022-12-27T13:48:33.251Z,100.00
2022-12-27T13:51:04.638Z,100.00
2022-12-27T13:53:56.913Z,100.00
2022-12-27T13:59:38.397Z,100.00
2022-12-27T14:02:27.672Z,100.00
2022-12-27T14:05:01.304Z,100.00
2022-12-27T14:07:47.234Z,100.00
2022-12-27T14:10:38.683Z,100.00
2022-12-27T14:13:10.624Z,100.00
2022-12-27T14:16:22.625Z,100.00
2022-12-27T14:18:58.911Z,100.00
2022-12-27T14:22:04.433Z,100.00
2022-12-27T14:25:19.739Z,100.00
2022-12-27T14:28:28.871Z,100.00
2022-12-27T14:31:05.575Z,100.00
2022-12-27T14:33:55.536Z,100.00
2022-12-27T14:36:28.923Z,100.00
2022-12-27T14:39:33.095Z,100.00
2022-12-27T14:42:09.492Z,100.00
2022-12-27T14:45:14.279Z,100.00
2022-12-27T14:48:05.069Z,100.00
2022-12-27T14:51:50.463Z,100.00
2022-12-27T14:54:17.664Z,100.00
2022-12-27T14:57:16.376Z,100.00
2022-12-27T15:00:12.313Z,100.00
2022-12-27T15:03:27.477Z,100.00
2022-12-27T15:06:48.598Z,100.00
2022-12-27T15:09:34.201Z,100.00
2022-12-27T15:12:43.148Z,100.00
2022-12-27T15:15:46.149Z,100.00
2022-12-27T15:18:27.106Z,100.00
2022-12-27T15:20:57.693Z,100.00
2022-12-27T15:23:39.030Z,100.00
2022-12-27T15:26:31.148Z,100.00
2022-12-27T15:29:23.934Z,100.00
2022-12-27T15:32:08.925Z,100.00
2022-12-27T15:34:36.411Z,100.00
2022-12-27T15:37:05.353Z,100.00
2022-12-27T15:39:32.907Z,100.00
2022-12-27T15:42:11.591Z,100.00
2022-12-27T15:44:57.961Z,100.00
2022-12-27T15:47:32.975Z,100.00
2022-12-27T15:50:18.668Z,100.00
2022-12-27T15:52:55.010Z,100.00
2022-12-27T15:55:35.169Z,100.00
2022-12-27T15:58:15.534Z,100.00
2022-12-27T16:00:44.843Z,100.00
2022-12-27T16:03:39.286Z,100.00
2022-12-27T16:06:07.859Z,100.00
2022-12-27T16:08:41.729Z,100.00
2022-12-27T16:11:12.595Z,100.00
2022-12-27T16:13:45.617Z,100.00
2022-12-27T16:16:28.675Z,100.00
2022-12-27T16:19:14.560Z,100.00
2022-12-27T16:21:44.628Z,100.00
2022-12-27T16:24:24.893Z,100.00
2022-12-27T16:27:01.712Z,100.00
2022-12-27T16:29:32.966Z,100.00
2022-12-27T16:32:20.647Z,100.00
2022-12-27T16:34:51.775Z,100.00
2022-12-27T16:37:24.949Z,100.00
2022-12-27T16:40:11.475Z,100.00
2022-12-27T16:42:48.336Z,100.00
2022-12-27T16:45:31.986Z,100.00
2022-12-27T16:48:06.385Z,100.00
2022-12-27T16:50:46.044Z,100.00
2022-12-27T16:53:41.032Z,100.00
2022-12-27T16:56:13.839Z,100.00
2022-12-27T16:58:42.181Z,100.00
2022-12-27T17:01:19.265Z,100.00
2022-12-27T17:03:49.355Z,100.00
2022-12-27T17:06:35.162Z,100.00
2022-12-27T17:09:09.084Z,100.00
2022-12-27T17:11:38.872Z,100.00
2022-12-27T17:14:14.569Z,100.00
2022-12-27T17:16:48.936Z,100.00
2022-12-27T17:19:23.737Z,100.00
2022-12-27T17:22:00.325Z,100.00
2022-12-27T17:24:29.136Z,100.00
2022-12-27T17:27:03.169Z,100.00
2022-12-27T17:30:08.317Z,100.00
2022-12-27T17:32:57.263Z,100.00
2022-12-27T17:35:29.156Z,100.00
2022-12-27T17:38:09.119Z,100.00
2022-12-27T17:40:53.698Z,100.00
2022-12-27T17:43:58.489Z,100.00
2022-12-27T17:46:36.577Z,100.00
2022-12-27T17:49:07.016Z,100.00
2022-12-27T17:51:38.680Z,100.00
2022-12-27T17:54:43.766Z,100.00
2022-12-27T17:57:32.550Z,100.00
2022-12-27T18:00:00.987Z,100.00
2022-12-27T18:02:33.478Z,100.00
2022-12-27T18:05:05.669Z,100.00
2022-12-27T18:07:34.653Z,100.00
2022-12-27T18:10:28.261Z,100.00
2022-12-27T18:12:59.683Z,100.00
2022-12-27T18:15:44.144Z,100.00
2022-12-27T18:18:23.847Z,100.00
2022-12-27T18:21:04.065Z,100.00
2022-12-27T18:23:43.068Z,100.00
2022-12-27T18:26:13.753Z,100.00
2022-12-27T18:28:43.260Z,100.00
2022-12-27T18:31:35.420Z,100.00
2022-12-27T18:34:25.778Z,100.00
2022-12-27T18:37:12.503Z,100.00
2022-12-27T18:39:46.923Z,100.00
2022-12-27T18:42:27.956Z,100.00
2022-12-27T18:45:00.915Z,100.00
2022-12-27T18:47:28.741Z,100.00
2022-12-27T18:50:01.875Z,100.00
2022-12-27T18:52:33.149Z,100.00
2022-12-27T18:55:26.735Z,100.00
2022-12-27T18:58:20.832Z,100.00
2022-12-27T19:01:03.153Z,100.00
2022-12-27T19:03:36.555Z,100.00
2022-12-27T19:06:13.373Z,100.00
2022-12-27T19:08:51.521Z,100.00
2022-12-27T19:11:22.115Z,100.00
2022-12-27T19:13:57.830Z,100.00
2022-12-27T19:16:34.500Z,100.00
2022-12-27T19:19:17.121Z,100.00
2022-12-27T19:21:44.809Z,100.00
2022-12-27T19:24:32.366Z,100.00
2022-12-27T19:27:13.968Z,100.00
2022-12-27T19:29:51.035Z,100.00
2022-12-27T19:32:28.962Z,100.00
2022-12-27T19:35:00.451Z,100.00
2022-12-27T19:37:29.943Z,100.00
2022-12-27T19:39:58.681Z,100.00
2022-12-27T19:42:30.118Z,100.00
2022-12-27T19:44:57.833Z,100.00
2022-12-27T19:47:27.419Z,100.00
2022-12-27T19:49:55.106Z,100.00
2022-12-27T19:52:25.148Z,100.00
2022-12-27T19:55:05.267Z,100.00
2022-12-27T19:57:32.886Z,100.00
2022-12-27T20:00:02.266Z,100.00
2022-12-27T20:02:32.908Z,100.00
2022-12-27T20:05:00.780Z,100.00
2022-12-27T20:07:28.336Z,100.00
2022-12-27T20:09:56.495Z,100.00
2022-12-27T20:12:24.042Z,100.00
2022-12-27T20:14:51.626Z,100.00
2022-12-27T20:17:19.717Z,100.00
2022-12-27T20:19:47.364Z,100.00
2022-12-27T20:22:14.948Z,100.00
2022-12-27T20:24:42.534Z,100.00
2022-12-27T20:27:10.212Z,100.00
2022-12-27T20:29:37.889Z,100.00
2022-12-27T20:32:05.683Z,100.00
2022-12-27T20:34:33.315Z,100.00
2022-12-27T20:37:00.934Z,100.00
2022-12-27T20:39:28.578Z,100.00
2022-12-27T20:41:56.472Z,100.00
2022-12-27T20:44:24.049Z,100.00
2022-12-27T20:46:51.639Z,100.00
2022-12-27T20:49:19.407Z,100.00
2022-12-27T20:51:46.978Z,100.00
2022-12-27T20:54:16.297Z,100.00
2022-12-27T20:56:44.014Z,100.00
2022-12-27T20:59:11.579Z,100.00
2022-12-27T21:01:39.258Z,100.00
2022-12-27T21:04:06.833Z,100.00
2022-12-27T21:06:34.600Z,100.00
2022-12-27T21:09:02.144Z,100.00
2022-12-27T21:11:31.990Z,100.00
2022-12-27T21:14:01.658Z,100.00
2022-12-27T21:16:31.942Z,100.00
2022-12-27T21:19:03.641Z,100.00
2022-12-27T21:21:33.760Z,100.00
2022-12-27T21:24:02.253Z,100.00
2022-12-27T21:26:33.565Z,100.00
2022-12-27T21:29:03.785Z,100.00
2022-12-27T21:31:32.518Z,100.00
2022-12-27T21:34:00.563Z,100.00
2022-12-27T21:36:31.355Z,100.00
2022-12-27T21:38:59.183Z,100.00
2022-12-27T21:41:33.135Z,100.00
2022-12-27T21:44:02.018Z,100.00
2022-12-27T21:46:36.235Z,100.00
2022-12-27T21:49:09.645Z,100.00
2022-12-27T21:51:38.636Z,100.00
2022-12-27T21:54:07.084Z,100.00
2022-12-27T21:56:35.043Z,100.00
2022-12-27T21:59:05.577Z,100.00
2022-12-27T22:01:50.306Z,100.00
2022-12-27T22:04:23.140Z,100.00
2022-12-27T22:06:51.035Z,100.00
2022-12-27T22:09:19.509Z,100.00
2022-12-27T22:11:48.073Z,100.00
2022-12-27T22:14:16.759Z,100.00
2022-12-27T22:16:44.469Z,100.00
2022-12-27T22:19:13.765Z,100.00
2022-12-27T22:21:42.521Z,100.00
2022-12-27T22:24:15.529Z,100.00
2022-12-27T22:26:43.272Z,100.00
2022-12-27T22:29:12.219Z,100.00
2022-12-27T22:31:40.414Z,100.00
2022-12-27T22:34:08.027Z,100.00
2022-12-27T22:36:35.708Z,100.00
2022-12-27T22:39:04.091Z,100.00
2022-12-27T22:41:34.197Z,100.00
2022-12-27T22:44:11.344Z,100.00
2022-12-27T22:49:27.964Z,100.00
2022-12-27T22:51:55.497Z,100.00
2022-12-27T22:55:05.069Z,100.00
2022-12-27T22:57:10.657Z,100.00
2022-12-27T22:59:38.275Z,100.00
2022-12-27T23:02:05.986Z,100.00
2022-12-27T23:04:33.739Z,100.00
2022-12-27T23:07:02.253Z,100.00
2022-12-27T23:09:29.904Z,100.00
2022-12-27T23:11:57.588Z,100.00
2022-12-27T23:14:25.349Z,100.00
2022-12-27T23:16:52.974Z,100.00
2022-12-27T23:19:24.590Z,100.00
2022-12-27T23:21:53.284Z,100.00
2022-12-27T23:24:20.807Z,100.00
2022-12-27T23:26:48.413Z,100.00
2022-12-27T23:29:16.021Z,100.00
2022-12-27T23:31:55.431Z,100.00
2022-12-27T23:34:28.237Z,100.00
2022-12-27T23:36:58.446Z,100.00
2022-12-27T23:39:26.267Z,100.00
2022-12-27T23:41:54.199Z,100.00
2022-12-27T23:44:34.060Z,100.00
2022-12-27T23:47:05.326Z,100.00
2022-12-27T23:49:33.766Z,100.00
2022-12-27T23:52:01.474Z,100.00
2022-12-27T23:54:29.176Z,100.00
2022-12-27T23:56:56.719Z,100.00
2022-12-27T23:59:24.744Z,100.00
